Weather at Sandefjord Airport, Torp

Public forecast

Using degrees Celsius for public forecast. Weather courtesy of forecast.io.

Current aviation weather report (METAR) for Sandefjord Airport, Torp

Retrieved 2022/01/29 06:20 UTC (25 seconds ago):

ENTO 290620Z 22013KT 9999 OVC005 06/06 Q0994 NOSIG

Aviation forecast (TAF) for Sandefjord Airport, Torp

Retrieved 2022/01/29 06:03 UTC (17 minutes ago):

TAF ENTO 290500Z 2906/3006 21012KT 9999 SCT010 TEMPO 2906/2915 21018G30KT PROB40 2906/2910 3000 BR OVC003 BECMG 2915/2917 30020KT TEMPO 2915/3006 30025G38KT